Time;durP1;ratioP1;P1;durP2;ratioP2;P2;SDS_P1;SDS_P2;PMS_P1;PMS_P2;Temp;Humidity;BMP_temperature;BMP_pressure;BME280_temperature;BME280_humidity;BME280_pressure;Samples;Min_cycle;Max_cycle;Signal;HPM_P1;HPM_P2
2022/12/04 00:01:56;;;;;;;97.50;36.15;;;;;;;;;;4992041;28;20092;-70
2022/12/04 00:04:22;;;;;;;97.78;37.20;;;;;;;;;;4973269;28;20034;-72
2022/12/04 00:06:48;;;;;;;96.38;36.33;;;;;;;;;;4991655;28;20043;-72
2022/12/04 00:09:15;;;;;;;94.97;36.83;;;;;;;;;;4991236;28;20034;-72
2022/12/04 00:11:41;;;;;;;95.50;38.55;;;;;;;;;;4992363;28;20046;-72
2022/12/04 00:14:07;;;;;;;101.80;38.78;;;;;;;;;;4990767;28;20041;-72
2022/12/04 00:16:33;;;;;;;102.05;39.25;;;;;;;;;;4990809;28;20173;-71
2022/12/04 00:18:59;;;;;;;101.88;38.97;;;;;;;;;;4991901;28;20030;-72
2022/12/04 00:21:26;;;;;;;99.25;38.08;;;;;;;;;;5006996;28;20035;-72
2022/12/04 00:23:53;;;;;;;104.82;39.55;;;;;;;;;;4991087;28;20409;-71
2022/12/04 00:26:21;;;;;;;91.40;36.83;;;;;;;;;;4988931;28;20053;-71
2022/12/04 00:28:48;;;;;;;108.28;41.63;;;;;;;;;;4988279;28;20034;-70
2022/12/04 00:31:16;;;;;;;104.53;40.72;;;;;;;;;;4991722;28;20043;-71
2022/12/04 00:33:43;;;;;;;91.78;37.45;;;;;;;;;;4990989;28;20507;-71
2022/12/04 00:36:10;;;;;;;96.93;39.45;;;;;;;;;;4990239;28;20034;-71
2022/12/04 00:38:37;;;;;;;103.43;39.58;;;;;;;;;;4986012;28;20045;-71
2022/12/04 00:41:03;;;;;;;103.05;39.15;;;;;;;;;;4986948;28;20483;-71
2022/12/04 00:43:30;;;;;;;98.50;37.90;;;;;;;;;;4970131;28;20034;-70
2022/12/04 00:45:56;;;;;;;102.38;38.67;;;;;;;;;;4989804;28;20104;-70
2022/12/04 00:48:22;;;;;;;108.63;38.72;;;;;;;;;;4980225;28;20117;-70
2022/12/04 00:50:48;;;;;;;97.45;38.80;;;;;;;;;;4973341;28;20058;-70
2022/12/04 00:53:14;;;;;;;100.18;39.50;;;;;;;;;;4989440;28;20093;-70
2022/12/04 00:55:41;;;;;;;104.45;40.65;;;;;;;;;;4967789;28;20101;-71
2022/12/04 00:58:08;;;;;;;100.47;38.65;;;;;;;;;;4976591;28;20034;-70
2022/12/04 01:00:34;;;;;;;97.35;38.17;;;;;;;;;;4991138;28;20118;-71
2022/12/04 01:03:01;;;;;;;103.43;39.50;;;;;;;;;;4987739;28;20461;-71
2022/12/04 01:05:27;;;;;;;104.38;38.05;;;;;;;;;;4990365;28;20030;-71
2022/12/04 01:07:54;;;;;;;106.68;41.20;;;;;;;;;;4990477;28;20427;-71
2022/12/04 01:10:20;;;;;;;103.88;40.67;;;;;;;;;;4990919;28;20030;-70
2022/12/04 01:12:48;;;;;;;95.75;40.30;;;;;;;;;;4986313;28;20033;-72
2022/12/04 01:15:15;;;;;;;105.03;39.60;;;;;;;;;;4990774;28;20041;-71
2022/12/04 01:17:41;;;;;;;105.65;42.03;;;;;;;;;;4989596;28;20493;-72
2022/12/04 01:20:07;;;;;;;103.18;38.90;;;;;;;;;;4991077;28;20034;-72
2022/12/04 01:22:33;;;;;;;99.20;39.42;;;;;;;;;;4990984;28;20464;-71
2022/12/04 01:24:59;;;;;;;93.35;38.65;;;;;;;;;;4989716;28;20042;-71
2022/12/04 01:27:25;;;;;;;95.40;39.10;;;;;;;;;;4976400;28;20148;-71
2022/12/04 01:29:51;;;;;;;97.68;39.38;;;;;;;;;;4988963;28;20034;-72
2022/12/04 01:32:17;;;;;;;101.47;39.22;;;;;;;;;;4973624;28;20066;-71
2022/12/04 01:34:44;;;;;;;104.22;39.05;;;;;;;;;;4990435;28;20038;-71
2022/12/04 01:37:10;;;;;;;93.53;35.22;;;;;;;;;;4989615;28;20177;-71
2022/12/04 01:39:37;;;;;;;102.20;39.33;;;;;;;;;;5004196;28;20026;-69
2022/12/04 01:42:03;;;;;;;100.50;39.67;;;;;;;;;;4987905;28;20042;-71
2022/12/04 01:44:29;;;;;;;100.80;38.92;;;;;;;;;;4990550;28;20046;-71
2022/12/04 01:46:56;;;;;;;101.90;39.72;;;;;;;;;;4989302;28;20057;-71
2022/12/04 01:49:55;;;;;;;103.60;40.97;;;;;;;;;;4989195;28;20058;-71
2022/12/04 01:52:22;;;;;;;101.60;39.30;;;;;;;;;;4957827;28;20100;-71
2022/12/04 01:54:53;;;;;;;99.32;41.03;;;;;;;;;;4990387;28;20037;-71
2022/12/04 01:57:20;;;;;;;103.97;39.17;;;;;;;;;;4987587;28;20034;-71
2022/12/04 01:59:55;;;;;;;104.40;40.75;;;;;;;;;;4987941;28;20102;-71
2022/12/04 02:02:35;;;;;;;106.63;42.15;;;;;;;;;;5002868;28;20118;-70
2022/12/04 02:05:03;;;;;;;106.88;41.22;;;;;;;;;;4989692;28;20030;-71
2022/12/04 02:07:29;;;;;;;104.45;40.22;;;;;;;;;;4987383;28;20069;-71
2022/12/04 02:09:55;;;;;;;112.20;41.60;;;;;;;;;;4992649;28;20038;-71
2022/12/04 02:12:41;;;;;;;103.28;40.72;;;;;;;;;;4992349;28;20035;-71
2022/12/04 02:15:10;;;;;;;105.53;41.00;;;;;;;;;;4972952;28;20526;-70
2022/12/04 02:17:49;;;;;;;105.18;40.03;;;;;;;;;;4992283;28;20041;-72
2022/12/04 02:20:22;;;;;;;113.30;42.92;;;;;;;;;;4993651;28;20026;-72
2022/12/04 02:23:07;;;;;;;107.97;41.72;;;;;;;;;;4994259;28;20026;-72
2022/12/04 02:26:11;;;;;;;112.97;42.65;;;;;;;;;;4990822;28;20435;-71
2022/12/04 02:28:37;;;;;;;106.07;40.90;;;;;;;;;;4927183;29;20118;-71
2022/12/04 02:31:06;;;;;;;96.03;37.90;;;;;;;;;;4952960;29;20142;-71
2022/12/04 02:33:35;;;;;;;109.72;42.63;;;;;;;;;;4941222;28;20039;-71
2022/12/04 02:36:09;;;;;;;105.20;41.65;;;;;;;;;;4993388;28;20041;-72
2022/12/04 02:38:38;;;;;;;111.35;42.13;;;;;;;;;;4990537;28;20165;-70
2022/12/04 02:41:16;;;;;;;106.07;39.97;;;;;;;;;;4992249;28;20041;-72
2022/12/04 02:43:48;;;;;;;107.82;40.60;;;;;;;;;;4979656;28;20034;-72
2022/12/04 02:46:40;;;;;;;105.47;40.75;;;;;;;;;;4993455;28;20026;-72
2022/12/04 02:49:09;;;;;;;106.07;41.38;;;;;;;;;;4993498;28;20042;-72
2022/12/04 02:51:37;;;;;;;105.43;41.88;;;;;;;;;;4990349;28;20069;-72
2022/12/04 02:54:11;;;;;;;102.55;40.28;;;;;;;;;;4992602;28;20027;-70
2022/12/04 02:56:40;;;;;;;102.97;42.20;;;;;;;;;;4992128;28;20034;-71
2022/12/04 02:59:12;;;;;;;108.15;42.00;;;;;;;;;;4992441;28;20031;-71
2022/12/04 03:01:39;;;;;;;105.28;42.53;;;;;;;;;;4989698;28;20030;-72
2022/12/04 03:04:09;;;;;;;104.45;41.50;;;;;;;;;;4992900;28;20033;-71
2022/12/04 03:06:37;;;;;;;100.47;40.45;;;;;;;;;;4995972;28;20058;-70
2022/12/04 03:09:12;;;;;;;104.78;41.50;;;;;;;;;;4975147;28;20022;-70
2022/12/04 03:11:39;;;;;;;108.72;43.00;;;;;;;;;;5007533;28;20022;-72
2022/12/04 03:14:17;;;;;;;106.53;41.50;;;;;;;;;;4992073;28;20107;-70
2022/12/04 03:16:43;;;;;;;102.00;41.63;;;;;;;;;;5000078;28;20038;-71
2022/12/04 03:19:14;;;;;;;114.93;44.50;;;;;;;;;;4990255;28;20109;-71
2022/12/04 03:21:43;;;;;;;105.07;41.90;;;;;;;;;;4994147;28;20030;-71
2022/12/04 03:24:09;;;;;;;108.50;42.92;;;;;;;;;;4987370;28;20034;-71
2022/12/04 03:26:47;;;;;;;98.75;39.28;;;;;;;;;;5000175;28;20026;-69
2022/12/04 03:29:13;;;;;;;102.20;40.97;;;;;;;;;;4992361;28;20026;-72
2022/12/04 03:31:39;;;;;;;103.70;40.80;;;;;;;;;;4990820;28;20399;-71
2022/12/04 03:34:08;;;;;;;106.80;41.83;;;;;;;;;;5004377;28;20038;-71
2022/12/04 03:36:37;;;;;;;105.88;42.10;;;;;;;;;;4982985;28;20105;-71
2022/12/04 03:39:08;;;;;;;102.13;40.75;;;;;;;;;;4991019;28;20085;-71
2022/12/04 03:41:34;;;;;;;;;;;;;;;;;;4991243;28;20030;-69
2022/12/04 03:44:06;;;;;;;105.70;40.15;;;;;;;;;;4992306;28;19920;-71
2022/12/04 03:46:49;;;;;;;104.70;40.17;;;;;;;;;;4996087;28;20036;-70
2022/12/04 03:49:31;;;;;;;104.93;41.20;;;;;;;;;;4994422;28;20339;-70
2022/12/04 03:52:00;;;;;;;107.40;43.53;;;;;;;;;;4990382;28;20073;-71
2022/12/04 03:54:34;;;;;;;114.15;44.67;;;;;;;;;;4991492;28;20414;-72
2022/12/04 03:57:03;;;;;;;96.80;39.70;;;;;;;;;;4990959;28;20480;-71
2022/12/04 03:59:34;;;;;;;108.95;43.67;;;;;;;;;;4991673;28;20039;-70
2022/12/04 04:02:00;;;;;;;;;;;;;;;;;;4992283;28;20026;-70
2022/12/04 04:04:30;;;;;;;102.00;40.80;;;;;;;;;;4974627;28;20293;-69
2022/12/04 04:06:58;;;;;;;107.15;42.42;;;;;;;;;;4991113;28;20045;-69
2022/12/04 04:09:25;;;;;;;101.75;40.58;;;;;;;;;;4989558;28;20062;-72
2022/12/04 04:11:58;;;;;;;107.78;39.78;;;;;;;;;;5007492;28;20365;-72
2022/12/04 04:25:41;;;;;;;108.55;41.83;;;;;;;;;;4972209;28;20376;-72
2022/12/04 04:28:26;;;;;;;108.30;40.15;;;;;;;;;;4987794;28;20023;-72
2022/12/04 04:30:53;;;;;;;107.35;41.42;;;;;;;;;;4990311;28;20038;-72
2022/12/04 04:33:20;;;;;;;103.38;41.50;;;;;;;;;;4989256;28;20145;-72
2022/12/04 04:35:53;;;;;;;105.57;42.63;;;;;;;;;;4990998;28;20038;-74
2022/12/04 04:38:34;;;;;;;103.43;43.00;;;;;;;;;;4988417;28;20089;-72
2022/12/04 04:41:04;;;;;;;109.53;41.65;;;;;;;;;;4988277;28;20520;-72
2022/12/04 04:43:43;;;;;;;114.05;43.72;;;;;;;;;;4991066;28;20114;-72
2022/12/04 04:46:16;;;;;;;107.18;43.63;;;;;;;;;;4982241;28;20423;-73
2022/12/04 04:48:48;;;;;;;112.68;43.53;;;;;;;;;;4988939;28;20118;-72
2022/12/04 04:51:15;;;;;;;109.72;42.33;;;;;;;;;;4990288;28;20061;-71
2022/12/04 04:53:55;;;;;;;113.38;43.70;;;;;;;;;;4985237;28;20118;-71
2022/12/04 04:56:21;;;;;;;104.40;41.65;;;;;;;;;;4990215;28;20111;-70
2022/12/04 04:58:47;;;;;;;109.90;42.08;;;;;;;;;;4972107;28;20053;-71
2022/12/04 05:01:15;;;;;;;113.82;42.78;;;;;;;;;;4990409;28;20545;-72
2022/12/04 05:03:42;;;;;;;107.18;42.42;;;;;;;;;;4989603;28;20109;-71
2022/12/04 05:06:08;;;;;;;112.65;43.80;;;;;;;;;;4972858;28;20030;-71
2022/12/04 05:08:34;;;;;;;104.18;43.58;;;;;;;;;;4980222;28;20053;-71
2022/12/04 05:11:01;;;;;;;108.93;41.75;;;;;;;;;;4990394;28;20397;-71
2022/12/04 05:13:28;;;;;;;103.70;41.28;;;;;;;;;;4990367;28;20041;-72
2022/12/04 05:15:58;;;;;;;107.25;43.47;;;;;;;;;;4990058;28;20109;-71
2022/12/04 05:18:24;;;;;;;86.75;33.72;;;;;;;;;;4989138;28;20044;-71
2022/12/04 05:20:50;;;;;;;111.57;43.13;;;;;;;;;;4990521;28;20111;-71
2022/12/04 05:23:16;;;;;;;106.38;43.20;;;;;;;;;;4989283;28;20062;-71
2022/12/04 05:25:45;;;;;;;110.18;42.97;;;;;;;;;;4987769;28;20022;-72
2022/12/04 05:28:12;;;;;;;118.60;45.35;;;;;;;;;;4956376;28;20053;-72
2022/12/04 05:30:38;;;;;;;112.43;45.60;;;;;;;;;;4987510;28;20323;-72
2022/12/04 05:33:04;;;;;;;113.93;46.20;;;;;;;;;;4991173;28;20058;-71
2022/12/04 05:35:30;;;;;;;118.25;45.50;;;;;;;;;;4990150;28;20498;-71
2022/12/04 05:37:56;;;;;;;114.80;44.67;;;;;;;;;;4992889;28;20472;-71
2022/12/04 05:40:23;;;;;;;113.82;41.72;;;;;;;;;;4988955;28;20033;-70
2022/12/04 05:42:49;;;;;;;111.55;45.17;;;;;;;;;;4974257;28;20035;-70
2022/12/04 05:45:15;;;;;;;111.85;45.08;;;;;;;;;;4978040;28;20035;-72
2022/12/04 05:47:42;;;;;;;119.28;46.05;;;;;;;;;;4992302;28;20130;-72
2022/12/04 05:50:09;;;;;;;112.97;42.70;;;;;;;;;;4992632;28;20046;-71
2022/12/04 05:52:36;;;;;;;110.35;44.13;;;;;;;;;;4992403;28;20030;-71
2022/12/04 05:55:02;;;;;;;117.05;46.05;;;;;;;;;;4992397;28;20038;-71
2022/12/04 05:57:28;;;;;;;115.88;46.55;;;;;;;;;;4993384;28;20030;-71
2022/12/04 05:59:54;;;;;;;107.25;42.85;;;;;;;;;;4992657;28;20054;-71
2022/12/04 06:02:20;;;;;;;114.97;43.97;;;;;;;;;;4993906;28;20034;-71
2022/12/04 06:04:46;;;;;;;114.43;45.58;;;;;;;;;;4991437;28;20054;-71
2022/12/04 06:07:13;;;;;;;107.43;43.22;;;;;;;;;;4993151;28;20038;-71
2022/12/04 06:09:39;;;;;;;113.60;44.05;;;;;;;;;;4992859;28;20073;-71
2022/12/04 06:12:05;;;;;;;109.85;43.58;;;;;;;;;;4992684;28;20395;-71
2022/12/04 06:14:31;;;;;;;115.88;45.55;;;;;;;;;;5007670;28;20031;-70
2022/12/04 06:16:57;;;;;;;115.70;45.05;;;;;;;;;;4993158;28;20043;-71
2022/12/04 06:19:23;;;;;;;111.63;42.55;;;;;;;;;;4991515;28;20044;-71
2022/12/04 06:21:51;;;;;;;119.97;46.15;;;;;;;;;;4992973;28;20407;-71
2022/12/04 06:24:19;;;;;;;113.07;43.83;;;;;;;;;;4990921;28;20146;-70
2022/12/04 06:26:45;;;;;;;109.03;43.03;;;;;;;;;;4992798;28;20022;-70
2022/12/04 06:29:12;;;;;;;106.95;42.50;;;;;;;;;;4991778;28;20046;-70
2022/12/04 06:31:38;;;;;;;119.28;45.55;;;;;;;;;;4993094;28;20109;-72
2022/12/04 06:34:05;;;;;;;110.35;45.10;;;;;;;;;;4988474;28;20022;-71
2022/12/04 06:36:31;;;;;;;109.65;43.85;;;;;;;;;;4990306;28;20177;-71
2022/12/04 06:38:57;;;;;;;108.85;43.38;;;;;;;;;;4990825;28;20483;-70
2022/12/04 06:41:24;;;;;;;107.70;41.95;;;;;;;;;;4993388;28;20034;-71
2022/12/04 06:43:50;;;;;;;107.22;43.20;;;;;;;;;;4993946;28;20026;-71
2022/12/04 06:46:20;;;;;;;109.00;44.28;;;;;;;;;;4991846;28;20109;-70
2022/12/04 06:48:47;;;;;;;80.60;33.20;;;;;;;;;;4992574;28;20536;-70
2022/12/04 06:51:20;;;;;;;102.35;44.60;;;;;;;;;;4990172;28;20058;-71
2022/12/04 06:53:46;;;;;;;108.75;43.75;;;;;;;;;;4991777;28;20484;-71
2022/12/04 06:56:16;;;;;;;110.28;42.95;;;;;;;;;;4992092;28;20377;-71
2022/12/04 06:58:44;;;;;;;102.32;42.97;;;;;;;;;;4991678;28;20034;-70
2022/12/04 07:01:11;;;;;;;102.03;40.20;;;;;;;;;;4991456;28;20501;-70
2022/12/04 07:03:37;;;;;;;107.68;44.72;;;;;;;;;;4991497;28;20038;-70
2022/12/04 07:06:14;;;;;;;106.88;43.10;;;;;;;;;;4991741;28;20038;-70
2022/12/04 07:08:40;;;;;;;105.30;42.40;;;;;;;;;;4990798;28;20038;-70
2022/12/04 07:11:06;;;;;;;107.80;42.90;;;;;;;;;;4997318;28;20038;-70
2022/12/04 07:13:32;;;;;;;106.95;42.28;;;;;;;;;;4992482;28;20053;-70
2022/12/04 07:15:59;;;;;;;101.28;41.67;;;;;;;;;;4996475;28;20065;-70
2022/12/04 07:18:25;;;;;;;106.35;42.38;;;;;;;;;;4993189;28;20042;-70
2022/12/04 07:20:51;;;;;;;104.25;42.50;;;;;;;;;;4978684;28;20519;-70
2022/12/04 07:23:18;;;;;;;98.72;39.17;;;;;;;;;;4991305;28;20050;-70
2022/12/04 07:25:44;;;;;;;103.53;38.97;;;;;;;;;;4988449;28;20116;-69
2022/12/04 07:28:10;;;;;;;102.03;40.90;;;;;;;;;;4987940;28;20030;-69
2022/12/04 07:30:39;;;;;;;106.82;40.90;;;;;;;;;;4990757;28;20133;-69
2022/12/04 07:33:05;;;;;;;107.20;41.60;;;;;;;;;;4980114;28;20057;-69
2022/12/04 07:35:31;;;;;;;107.30;43.65;;;;;;;;;;4990362;28;20039;-69
2022/12/04 07:37:57;;;;;;;105.00;42.13;;;;;;;;;;4992075;28;20038;-73
2022/12/04 07:40:23;;;;;;;108.80;42.55;;;;;;;;;;4974032;28;20042;-69
2022/12/04 07:42:50;;;;;;;110.70;43.03;;;;;;;;;;4970907;28;20079;-70
2022/12/04 07:45:16;;;;;;;106.72;42.97;;;;;;;;;;4990904;28;20029;-70
2022/12/04 07:47:42;;;;;;;104.50;41.05;;;;;;;;;;4990222;28;20038;-70
2022/12/04 07:50:08;;;;;;;109.20;44.00;;;;;;;;;;4970371;28;20431;-69
2022/12/04 07:52:36;;;;;;;103.50;41.20;;;;;;;;;;4950042;28;21426;-69
2022/12/04 07:55:02;;;;;;;107.70;43.00;;;;;;;;;;4988011;28;20034;-70
2022/12/04 07:57:29;;;;;;;114.20;43.72;;;;;;;;;;4985310;28;20033;-70
2022/12/04 07:59:56;;;;;;;105.70;41.75;;;;;;;;;;4983505;28;20029;-69
2022/12/04 08:02:22;;;;;;;106.40;43.15;;;;;;;;;;4987333;28;20030;-69
2022/12/04 08:04:48;;;;;;;102.78;40.58;;;;;;;;;;4989264;28;20157;-69
2022/12/04 08:07:16;;;;;;;107.20;44.50;;;;;;;;;;4988484;28;20041;-69
2022/12/04 08:09:43;;;;;;;108.07;41.30;;;;;;;;;;4988623;28;20038;-69
2022/12/04 08:12:09;;;;;;;107.78;42.22;;;;;;;;;;4988099;28;20023;-69
2022/12/04 08:14:35;;;;;;;112.32;41.72;;;;;;;;;;4990295;28;20053;-69
2022/12/04 08:17:01;;;;;;;112.15;42.65;;;;;;;;;;4990822;28;20030;-70
2022/12/04 08:19:28;;;;;;;107.82;41.78;;;;;;;;;;4990836;28;20030;-70
2022/12/04 08:21:54;;;;;;;103.43;40.10;;;;;;;;;;4989131;28;20407;-70
2022/12/04 08:24:21;;;;;;;111.00;42.67;;;;;;;;;;4989317;28;20031;-70
2022/12/04 08:26:47;;;;;;;105.47;44.10;;;;;;;;;;5008055;28;20053;-71
2022/12/04 08:29:13;;;;;;;105.85;41.25;;;;;;;;;;4988369;28;20018;-72
2022/12/04 08:31:39;;;;;;;104.20;41.35;;;;;;;;;;4988634;28;20101;-71
2022/12/04 08:34:06;;;;;;;110.38;43.83;;;;;;;;;;4988851;28;20120;-71
2022/12/04 08:36:33;;;;;;;109.35;41.95;;;;;;;;;;4988536;28;20077;-71
2022/12/04 08:38:59;;;;;;;103.22;39.70;;;;;;;;;;4998357;28;20027;-71
2022/12/04 08:41:25;;;;;;;107.53;44.22;;;;;;;;;;4983953;28;20050;-69
2022/12/04 08:43:56;;;;;;;112.10;42.25;;;;;;;;;;4981601;28;20157;-70
2022/12/04 08:46:24;;;;;;;111.18;44.20;;;;;;;;;;4986558;28;20030;-70
2022/12/04 08:48:50;;;;;;;112.97;43.33;;;;;;;;;;4988386;28;20380;-70
2022/12/04 08:51:17;;;;;;;110.82;42.95;;;;;;;;;;5002006;28;20054;-71
2022/12/04 08:53:44;;;;;;;116.75;44.88;;;;;;;;;;4986687;28;20093;-70
2022/12/04 08:56:10;;;;;;;107.00;44.08;;;;;;;;;;4989158;28;20038;-70
2022/12/04 08:58:36;;;;;;;107.65;43.75;;;;;;;;;;4987581;28;20034;-71
2022/12/04 09:01:05;;;;;;;109.32;42.13;;;;;;;;;;4988910;28;20030;-70
2022/12/04 09:03:31;;;;;;;104.70;41.65;;;;;;;;;;4986120;28;20483;-70
2022/12/04 09:05:58;;;;;;;114.72;45.38;;;;;;;;;;4982368;28;20026;-70
2022/12/04 09:08:25;;;;;;;108.15;41.80;;;;;;;;;;4983572;28;20034;-70
2022/12/04 09:10:51;;;;;;;108.65;43.90;;;;;;;;;;4987983;28;20050;-70
2022/12/04 09:13:17;;;;;;;105.60;43.13;;;;;;;;;;4988061;28;20088;-70
2022/12/04 09:15:43;;;;;;;103.88;43.72;;;;;;;;;;4990839;28;20043;-70
2022/12/04 09:18:09;;;;;;;106.50;41.15;;;;;;;;;;4969775;28;20113;-70
2022/12/04 09:20:36;;;;;;;105.47;42.35;;;;;;;;;;4998402;28;20088;-70
2022/12/04 09:23:03;;;;;;;108.90;42.78;;;;;;;;;;4972376;28;20038;-70
2022/12/04 09:25:29;;;;;;;105.18;42.90;;;;;;;;;;4988215;28;20431;-69
2022/12/04 09:27:55;;;;;;;101.22;40.20;;;;;;;;;;4974040;28;20034;-69
2022/12/04 09:30:21;;;;;;;96.68;39.17;;;;;;;;;;4988833;28;20380;-70
2022/12/04 09:32:48;;;;;;;102.25;40.42;;;;;;;;;;4989437;28;20038;-70
2022/12/04 09:35:14;;;;;;;99.93;40.65;;;;;;;;;;4979197;28;20157;-70
2022/12/04 09:37:40;;;;;;;105.60;41.75;;;;;;;;;;4982253;28;20063;-70
2022/12/04 09:40:07;;;;;;;111.72;42.45;;;;;;;;;;4979177;28;20034;-70
2022/12/04 09:42:40;;;;;;;104.88;39.47;;;;;;;;;;4977499;28;20027;-70
2022/12/04 09:45:16;;;;;;;122.50;41.28;;;;;;;;;;4981684;28;20022;-70
2022/12/04 09:47:53;;;;;;;107.28;41.78;;;;;;;;;;4977584;28;20064;-70
2022/12/04 09:50:20;;;;;;;111.10;41.28;;;;;;;;;;4982109;28;20081;-70
2022/12/04 09:52:54;;;;;;;105.10;41.28;;;;;;;;;;4977953;28;20030;-70
2022/12/04 09:55:32;;;;;;;113.40;42.33;;;;;;;;;;4983837;28;20061;-70
2022/12/04 09:58:00;;;;;;;106.25;40.17;;;;;;;;;;4983942;28;20043;-70
2022/12/04 10:00:28;;;;;;;103.13;39.60;;;;;;;;;;4969308;28;20111;-70
2022/12/04 10:03:05;;;;;;;104.82;43.22;;;;;;;;;;4980296;28;20014;-71
2022/12/04 10:05:40;;;;;;;111.53;41.10;;;;;;;;;;4962379;28;20019;-70
2022/12/04 10:08:12;;;;;;;103.05;40.42;;;;;;;;;;4977700;28;20121;-70
2022/12/04 10:10:39;;;;;;;102.57;38.30;;;;;;;;;;4981988;28;20034;-70
2022/12/04 10:13:20;;;;;;;105.13;39.75;;;;;;;;;;4981133;28;20038;-70
2022/12/04 10:16:33;;;;;;;97.38;39.47;;;;;;;;;;4983450;28;20495;-70
2022/12/04 10:19:03;;;;;;;109.10;40.33;;;;;;;;;;4980642;28;20492;-70
2022/12/04 10:21:38;;;;;;;100.53;39.13;;;;;;;;;;4983541;28;20420;-70
2022/12/04 10:24:19;;;;;;;103.13;39.40;;;;;;;;;;4981211;28;20050;-70
2022/12/04 10:26:45;;;;;;;;;;;;;;;;;;4979276;28;20041;-70
2022/12/04 10:29:15;;;;;;;103.38;35.83;;;;;;;;;;4981321;28;19918;-69
2022/12/04 10:31:44;;;;;;;71.13;27.75;;;;;;;;;;4984728;28;20042;-70
2022/12/04 10:34:17;;;;;;;94.43;35.45;;;;;;;;;;4980521;28;20026;-70
2022/12/04 10:36:48;;;;;;;100.43;35.35;;;;;;;;;;4987202;28;20038;-70
2022/12/04 10:39:35;;;;;;;99.10;36.75;;;;;;;;;;4981943;28;20026;-70
2022/12/04 10:42:06;;;;;;;87.53;33.45;;;;;;;;;;4983063;28;20042;-69
2022/12/04 10:44:32;;;;;;;95.57;35.92;;;;;;;;;;4983987;28;20034;-70
2022/12/04 10:46:59;;;;;;;86.18;34.13;;;;;;;;;;4984072;28;20093;-70
2022/12/04 10:49:27;;;;;;;88.35;33.88;;;;;;;;;;4982735;28;20554;-71
2022/12/04 10:51:54;;;;;;;80.13;31.83;;;;;;;;;;4968454;28;20416;-70
2022/12/04 10:54:39;;;;;;;92.07;34.10;;;;;;;;;;4967566;28;20480;-72
2022/12/04 10:57:06;;;;;;;88.47;33.97;;;;;;;;;;4966637;28;20031;-72
2022/12/04 10:59:33;;;;;;;84.43;33.15;;;;;;;;;;4966136;28;20089;-70
2022/12/04 11:02:19;;;;;;;88.07;34.20;;;;;;;;;;4958769;28;20030;-71
2022/12/04 11:04:51;;;;;;;82.47;32.10;;;;;;;;;;4961336;28;20544;-70
2022/12/04 11:07:22;;;;;;;79.93;31.05;;;;;;;;;;4963075;28;20039;-70
2022/12/04 11:09:56;;;;;;;74.22;30.88;;;;;;;;;;4965279;28;20034;-68
2022/12/04 11:12:22;;;;;;;65.57;25.67;;;;;;;;;;4968862;28;20093;-69
2022/12/04 11:14:59;;;;;;;69.93;28.52;;;;;;;;;;4959646;28;20513;-70
2022/12/04 11:17:25;;;;;;;68.72;29.20;;;;;;;;;;4965903;28;20038;-71
2022/12/04 11:20:03;;;;;;;65.72;27.80;;;;;;;;;;4962505;28;20546;-71
2022/12/04 11:22:30;;;;;;;82.03;30.35;;;;;;;;;;4959008;28;20508;-72
2022/12/04 11:24:57;;;;;;;72.35;29.35;;;;;;;;;;4958298;28;20078;-70
2022/12/04 11:27:30;;;;;;;70.35;29.05;;;;;;;;;;4958906;28;20050;-71
2022/12/04 11:29:57;;;;;;;61.88;26.90;;;;;;;;;;4958675;28;20053;-71
2022/12/04 11:32:24;;;;;;;70.93;28.33;;;;;;;;;;4960272;28;20039;-71
2022/12/04 11:34:53;;;;;;;69.22;28.77;;;;;;;;;;4963641;28;20483;-71
2022/12/04 11:37:25;;;;;;;69.32;28.63;;;;;;;;;;4965298;28;20049;-71
2022/12/04 11:39:52;;;;;;;67.43;27.65;;;;;;;;;;4961797;28;20023;-69
2022/12/04 11:42:22;;;;;;;63.03;27.05;;;;;;;;;;4995000;28;20472;-71
2022/12/04 11:44:59;;;;;;;49.33;20.23;;;;;;;;;;4962899;28;20039;-70
2022/12/04 11:47:26;;;;;;;59.40;24.45;;;;;;;;;;4965777;28;20300;-70
2022/12/04 11:50:10;;;;;;;62.30;26.08;;;;;;;;;;4968225;28;20232;-70
2022/12/04 11:52:55;;;;;;;72.90;27.40;;;;;;;;;;4963898;28;20031;-72
2022/12/04 11:55:21;;;;;;;62.50;26.83;;;;;;;;;;4962112;28;20404;-70
2022/12/04 11:57:47;;;;;;;60.90;25.63;;;;;;;;;;4963285;28;20520;-71
2022/12/04 12:00:18;;;;;;;60.40;25.25;;;;;;;;;;4962382;28;20028;-70
2022/12/04 12:03:03;;;;;;;53.92;23.40;;;;;;;;;;4962870;28;20046;-70
2022/12/04 12:05:35;;;;;;;57.95;23.60;;;;;;;;;;4993567;28;20019;-71
2022/12/04 12:08:21;;;;;;;57.20;24.58;;;;;;;;;;4964950;28;20978;-68
2022/12/04 12:11:01;;;;;;;54.22;25.42;;;;;;;;;;4971991;28;20026;-69
2022/12/04 12:13:35;;;;;;;58.67;24.38;;;;;;;;;;4960772;28;20027;-71
2022/12/04 12:16:04;;;;;;;56.75;23.85;;;;;;;;;;4965948;28;20086;-70
2022/12/04 12:18:48;;;;;;;51.30;22.20;;;;;;;;;;4960886;28;20031;-70
2022/12/04 12:21:29;;;;;;;51.60;23.35;;;;;;;;;;4992365;28;20034;-70
2022/12/04 12:24:13;;;;;;;49.55;21.88;;;;;;;;;;4965643;28;20031;-69
2022/12/04 12:26:46;;;;;;;46.97;21.75;;;;;;;;;;4995830;28;20042;-69
2022/12/04 12:29:15;;;;;;;48.75;22.95;;;;;;;;;;4962497;28;20098;-70
2022/12/04 12:32:07;;;;;;;46.75;22.27;;;;;;;;;;4961799;28;20159;-70
2022/12/04 12:34:40;;;;;;;49.05;21.67;;;;;;;;;;4961955;28;20070;-70
2022/12/04 12:37:22;;;;;;;45.38;20.40;;;;;;;;;;4959435;28;20031;-73
2022/12/04 12:40:00;;;;;;;45.13;20.58;;;;;;;;;;4964349;28;20058;-70
2022/12/04 12:42:30;;;;;;;43.90;21.00;;;;;;;;;;4962852;28;20081;-70
2022/12/04 12:45:22;;;;;;;41.03;20.35;;;;;;;;;;4974627;28;20041;-70
2022/12/04 12:47:51;;;;;;;48.50;21.85;;;;;;;;;;4954742;28;20133;-70
2022/12/04 12:50:34;;;;;;;46.22;22.17;;;;;;;;;;4971108;28;20161;-71
2022/12/04 12:53:05;;;;;;;51.47;24.58;;;;;;;;;;4978498;28;20476;-71
2022/12/04 12:55:49;;;;;;;52.05;24.73;;;;;;;;;;4976352;28;20516;-70
2022/12/04 12:58:28;;;;;;;48.38;23.10;;;;;;;;;;4979041;28;20038;-70
2022/12/04 13:01:03;;;;;;;47.55;22.80;;;;;;;;;;4977874;28;20034;-68
2022/12/04 13:03:48;;;;;;;51.65;24.17;;;;;;;;;;4976329;28;20053;-69
2022/12/04 13:06:17;;;;;;;43.83;21.48;;;;;;;;;;4975662;28;20507;-71
2022/12/04 13:08:59;;;;;;;47.15;23.38;;;;;;;;;;4979556;28;20190;-71
2022/12/04 13:11:27;;;;;;;43.55;20.58;;;;;;;;;;4978433;28;20105;-71
2022/12/04 13:14:01;;;;;;;45.55;21.33;;;;;;;;;;4979691;28;20018;-70
2022/12/04 13:16:46;;;;;;;43.05;21.40;;;;;;;;;;4966611;28;20093;-70
2022/12/04 13:19:27;;;;;;;41.28;20.75;;;;;;;;;;4974461;28;20424;-70
2022/12/04 13:22:08;;;;;;;39.25;19.55;;;;;;;;;;4978249;28;20031;-70
2022/12/04 13:24:41;;;;;;;40.97;19.80;;;;;;;;;;4977627;28;20124;-70
2022/12/04 13:27:26;;;;;;;40.25;19.88;;;;;;;;;;4982282;28;20483;-71
2022/12/04 13:29:52;;;;;;;40.95;20.77;;;;;;;;;;4977653;28;20034;-70
2022/12/04 13:32:18;;;;;;;43.25;21.70;;;;;;;;;;4976277;28;20023;-69
2022/12/04 13:35:03;;;;;;;42.25;20.55;;;;;;;;;;4974839;28;20038;-69
2022/12/04 13:37:39;;;;;;;42.17;21.67;;;;;;;;;;4978459;28;20031;-70
2022/12/04 13:40:14;;;;;;;40.35;20.75;;;;;;;;;;4976104;28;21411;-70
2022/12/04 13:42:41;;;;;;;43.97;20.48;;;;;;;;;;4976436;28;20034;-70
2022/12/04 13:45:10;;;;;;;40.40;20.70;;;;;;;;;;4980023;28;20051;-70
2022/12/04 13:47:37;;;;;;;38.72;19.38;;;;;;;;;;4976838;28;20037;-70
2022/12/04 13:50:12;;;;;;;40.33;19.48;;;;;;;;;;4985935;28;20054;-69
2022/12/04 13:52:40;;;;;;;38.72;19.08;;;;;;;;;;5007065;28;20049;-70
2022/12/04 13:55:41;;;;;;;41.15;20.67;;;;;;;;;;5002922;28;20069;-70
2022/12/04 13:58:10;;;;;;;42.95;21.08;;;;;;;;;;4931356;29;20046;-70
2022/12/04 14:00:38;;;;;;;39.72;19.92;;;;;;;;;;5000009;28;20026;-70
2022/12/04 14:03:23;;;;;;;41.97;20.95;;;;;;;;;;5002470;28;20041;-70
2022/12/04 14:05:49;;;;;;;43.45;21.55;;;;;;;;;;5007345;28;20466;-69
2022/12/04 14:08:22;;;;;;;56.20;26.10;;;;;;;;;;5009167;28;20067;-70
2022/12/04 14:10:57;;;;;;;47.67;23.63;;;;;;;;;;5010828;28;20036;-70
2022/12/04 14:13:26;;;;;;;55.63;25.60;;;;;;;;;;5006197;28;20104;-70
2022/12/04 14:16:22;;;;;;;42.08;21.42;;;;;;;;;;5009716;28;20034;-71
2022/12/04 14:18:53;;;;;;;47.55;23.80;;;;;;;;;;4996253;28;20454;-70
2022/12/04 14:21:19;;;;;;;44.10;22.67;;;;;;;;;;5009222;28;20022;-70
2022/12/04 14:23:46;;;;;;;51.67;25.13;;;;;;;;;;4999444;28;20014;-70
2022/12/04 14:26:21;;;;;;;57.72;26.95;;;;;;;;;;5006289;28;20117;-70
2022/12/04 14:28:47;;;;;;;60.38;28.77;;;;;;;;;;5005916;28;20670;-70
2022/12/04 14:31:16;;;;;;;49.45;22.33;;;;;;;;;;5007666;28;20040;-70
2022/12/04 14:34:03;;;;;;;58.63;26.48;;;;;;;;;;5010601;28;20041;-70
2022/12/04 14:36:40;;;;;;;67.68;29.35;;;;;;;;;;5007043;28;20658;-70
2022/12/04 14:39:24;;;;;;;67.07;30.50;;;;;;;;;;5000612;28;20029;-69
2022/12/04 14:41:50;;;;;;;65.10;28.85;;;;;;;;;;5011623;28;20026;-70